LIMC Airport Information

Runway Information
Runway 17R Length 12861 ft width 197 ft Elevation 764 ft Threshold N/A Heading 170
Runway 35L Length 12861 ft Width 197 ft Elevation 696 ft Threshold 1329 ft Heading 350
Runway 17L Length 12861 ft width 197 ft Elevation 745 ft Threshold 3094 ft Heading 170
Runway 35R Length 12861 ft Width 197 ft Elevation 691 ft Threshold N/A Heading 350
Airport Frequencies
Type APP Name MILANO APP Frequency 132.7 MHZ
Type ATIS Name ATIS Frequency 120.025 MHZ
Type CLD Name CLNC DEL Frequency 120.9 MHZ
Type DEP Name MILANO DEP Frequency 126.75 MHZ
Type GND Name GND Frequency 121.9 MHZ
Type TWR Name TWR Frequency 119 MHZ
Airport Navaids
Type VOR-DME Name Malpensa Frequency 111200 KHZ
Type NDB Name Malpensa Frequency 364 KHZ
Airport Weather Information & NOTAM
ADDS - METARS form results

(2149 UTC 31 May 2023)
Data provider http://aviationweather.gov/metar/data/
 
METAR text: LIMC 312120Z 36006KT CAVOK 19/14 Q1018 NOSIG
Conditions at: LIMC (MILANO/MALPENSA , IT) observed 2120 UTC 31 May 2023
Temperature: 19.0°C (66°F)
Dewpoint: 14.0°C (57°F) [RH = 73%]
Pressure (altimeter): 30.06 inches Hg (1018.0 mb)
Winds: from the N (360 degrees) at 7 MPH (6 knots; 3.1 m/s)
Visibility: 6 or more miles (10+ km)
Ceiling: ceiling and visibility are OK
Clouds: unknown
Weather: no significant weather observed at this time

METAR text: LIMC 312050Z 35004KT CAVOK 19/14 Q1018 NOSIG
Conditions at: LIMC (MILANO/MALPENSA , IT) observed 2050 UTC 31 May 2023
Temperature: 19.0°C (66°F)
Dewpoint: 14.0°C (57°F) [RH = 73%]
Pressure (altimeter): 30.06 inches Hg (1018.0 mb)
Winds: from the N (350 degrees) at 5 MPH (4 knots; 2.1 m/s)
Visibility: 6 or more miles (10+ km)
Ceiling: ceiling and visibility are OK
Clouds: unknown
Weather: no significant weather observed at this time

Forecast for: LIMC (MILANO/MALPENSA , IT)
Text: TAF LIMC 311700Z 3118/0124 36005KT 9999 SCT050
Forecast period: 1800 UTC 31 May 2023 to 0000 UTC 02 June 2023
Forecast type: FROM: standard forecast or significant change
Winds: from the N (360 degrees) at 6 MPH (5 knots; 2.6 m/s)
Visibility: 6 or more miles (10+ km)
Ceiling: at least 12,000 feet AGL
Clouds: scattered clouds at 5000 feet AGL
Weather: no significant weather forecast for this period